createdAt,value
2022-12-29T00:02:14.823Z,11.55
2022-12-29T00:04:41.709Z,11.35
2022-12-29T00:07:08.461Z,11.16
2022-12-29T00:09:37.904Z,11.39
2022-12-29T00:12:05.269Z,11.53
2022-12-29T00:14:52.483Z,11.51
2022-12-29T00:17:19.155Z,11.31
2022-12-29T00:20:05.245Z,11.26
2022-12-29T00:22:50.614Z,11.55
2022-12-29T00:25:36.953Z,11.64
2022-12-29T00:28:22.077Z,11.43
2022-12-29T00:31:08.343Z,11.47
2022-12-29T00:33:53.735Z,11.93
2022-12-29T00:36:26.607Z,11.57
2022-12-29T00:39:22.465Z,11.37
2022-12-29T00:42:07.873Z,11.57
2022-12-29T00:44:34.536Z,11.84
2022-12-29T00:47:04.212Z,11.76
2022-12-29T00:49:35.205Z,11.64
2022-12-29T00:52:06.428Z,11.67
2022-12-29T00:54:35.111Z,11.75
2022-12-29T00:57:05.679Z,11.72
2022-12-29T00:59:34.597Z,11.68
2022-12-29T01:02:01.266Z,11.83
2022-12-29T01:04:29.211Z,11.94
2022-12-29T01:06:55.756Z,12.12
2022-12-29T01:09:41.318Z,11.70
2022-12-29T01:12:09.217Z,12.09
2022-12-29T01:14:36.105Z,11.92
2022-12-29T01:17:03.496Z,11.91
2022-12-29T01:19:30.021Z,12.15
2022-12-29T01:21:56.599Z,11.83
2022-12-29T01:24:23.414Z,11.94
2022-12-29T01:26:50.084Z,11.89
2022-12-29T01:29:17.170Z,11.89
2022-12-29T01:31:46.132Z,11.72
2022-12-29T01:34:12.871Z,11.80
2022-12-29T01:36:39.637Z,11.86
2022-12-29T01:39:06.216Z,11.93
2022-12-29T01:41:33.099Z,11.97
2022-12-29T01:44:02.698Z,11.92
2022-12-29T01:47:04.166Z,11.96
2022-12-29T01:49:30.805Z,11.94
2022-12-29T01:52:02.115Z,12.13
2022-12-29T01:54:41.918Z,12.03
2022-12-29T01:57:11.667Z,11.87
2022-12-29T01:59:44.149Z,12.17
2022-12-29T02:02:14.170Z,11.99
2022-12-29T02:04:45.359Z,12.11
2022-12-29T02:07:17.772Z,11.86
2022-12-29T02:09:47.569Z,12.12
2022-12-29T02:12:15.982Z,12.14
2022-12-29T02:14:47.445Z,12.08
2022-12-29T02:17:19.437Z,11.96
2022-12-29T02:19:46.028Z,11.99
2022-12-29T02:22:31.457Z,11.95
2022-12-29T02:25:10.620Z,12.01
2022-12-29T02:27:52.217Z,12.10
2022-12-29T02:30:27.880Z,12.09
2022-12-29T02:33:01.680Z,12.11
2022-12-29T02:35:37.175Z,11.85
2022-12-29T02:38:12.888Z,11.83
2022-12-29T02:40:47.621Z,11.90
2022-12-29T02:43:26.349Z,11.92
2022-12-29T02:46:00.014Z,12.12
2022-12-29T02:48:56.163Z,12.09
2022-12-29T02:51:26.824Z,12.33
2022-12-29T02:54:14.195Z,12.14
2022-12-29T02:56:40.985Z,12.13
2022-12-29T02:59:07.856Z,12.02
2022-12-29T03:02:06.343Z,12.04
2022-12-29T03:04:52.455Z,11.97
2022-12-29T03:07:41.004Z,11.84
2022-12-29T03:10:26.274Z,11.99
2022-12-29T03:13:30.641Z,11.66
2022-12-29T03:16:20.570Z,11.60
2022-12-29T03:18:50.224Z,11.41
2022-12-29T03:21:17.601Z,11.40
2022-12-29T03:23:50.774Z,11.71
2022-12-29T03:26:19.613Z,11.75
2022-12-29T03:28:54.377Z,11.76
2022-12-29T03:31:28.482Z,11.92
2022-12-29T03:33:56.686Z,11.84
2022-12-29T03:36:34.861Z,11.86
2022-12-29T03:39:09.803Z,11.92
2022-12-29T03:41:37.569Z,11.85
2022-12-29T03:44:08.816Z,11.86
2022-12-29T03:46:35.679Z,11.88
2022-12-29T03:49:03.157Z,11.87
2022-12-29T03:51:30.432Z,11.97
2022-12-29T03:53:57.555Z,12.19
2022-12-29T03:56:24.225Z,12.09
2022-12-29T03:58:53.714Z,12.05
2022-12-29T04:01:30.437Z,12.06
2022-12-29T04:03:57.148Z,12.21
2022-12-29T04:06:24.664Z,12.31
2022-12-29T04:09:01.132Z,12.56
2022-12-29T04:11:33.207Z,12.79
2022-12-29T04:14:02.159Z,12.89
2022-12-29T04:16:30.702Z,12.92
2022-12-29T04:18:57.400Z,12.83
2022-12-29T04:21:24.028Z,12.97
2022-12-29T04:23:51.274Z,13.03
2022-12-29T04:26:17.925Z,12.96
2022-12-29T04:29:04.003Z,12.84
2022-12-29T04:31:56.321Z,12.84
2022-12-29T04:34:23.083Z,12.98
2022-12-29T04:36:50.180Z,13.05
2022-12-29T04:39:17.878Z,12.70
2022-12-29T04:41:45.146Z,12.67
2022-12-29T04:44:16.976Z,12.78
2022-12-29T04:46:54.076Z,12.79
2022-12-29T04:49:39.169Z,12.72
2022-12-29T04:52:35.604Z,12.76
2022-12-29T04:55:05.345Z,12.74
2022-12-29T04:57:31.965Z,12.72
2022-12-29T05:00:00.629Z,12.85
2022-12-29T05:02:27.842Z,12.91
2022-12-29T05:04:56.575Z,13.01
2022-12-29T05:07:23.617Z,13.04
2022-12-29T05:09:51.353Z,13.01
2022-12-29T05:12:18.033Z,13.17
2022-12-29T05:14:58.493Z,13.30
2022-12-29T05:17:25.161Z,13.22
2022-12-29T05:19:52.838Z,13.23
2022-12-29T05:22:20.164Z,12.99
2022-12-29T05:24:46.858Z,12.90
2022-12-29T05:27:13.749Z,12.88
2022-12-29T05:30:00.601Z,12.95
2022-12-29T05:32:27.374Z,13.08
2022-12-29T05:34:54.709Z,13.08
2022-12-29T05:37:24.290Z,13.36
2022-12-29T05:39:50.984Z,13.37
2022-12-29T05:42:18.512Z,12.93
2022-12-29T05:45:08.162Z,12.98
2022-12-29T05:47:56.769Z,13.13
2022-12-29T05:50:50.118Z,13.01
2022-12-29T05:53:21.462Z,13.03
2022-12-29T05:55:49.253Z,13.05
2022-12-29T05:58:17.815Z,13.16
2022-12-29T06:00:44.684Z,12.94
2022-12-29T06:03:11.774Z,12.91
2022-12-29T06:05:38.765Z,12.95
2022-12-29T06:08:05.717Z,12.85
2022-12-29T06:10:32.499Z,12.84
2022-12-29T06:13:08.604Z,12.96
2022-12-29T06:15:37.534Z,12.96
2022-12-29T06:18:07.104Z,12.92
2022-12-29T06:20:34.545Z,12.88
2022-12-29T06:23:03.549Z,12.96
2022-12-29T06:25:33.320Z,12.88
2022-12-29T06:28:00.282Z,12.99
2022-12-29T06:30:27.204Z,13.09
2022-12-29T06:32:53.889Z,12.87
2022-12-29T06:35:20.641Z,13.13
2022-12-29T06:37:50.383Z,13.10
2022-12-29T06:40:17.458Z,12.88
2022-12-29T06:43:10.232Z,13.05
2022-12-29T06:46:00.363Z,12.97
2022-12-29T06:48:27.089Z,13.03
2022-12-29T06:50:54.012Z,13.05
2022-12-29T06:53:20.605Z,13.21
2022-12-29T06:55:47.141Z,13.17
2022-12-29T06:58:13.768Z,12.95
2022-12-29T07:00:42.711Z,13.13
2022-12-29T07:03:09.402Z,13.03
2022-12-29T07:05:36.000Z,12.97
2022-12-29T07:08:02.697Z,12.90
2022-12-29T07:10:29.578Z,13.08
2022-12-29T07:12:56.301Z,13.23
2022-12-29T07:15:22.966Z,13.26
2022-12-29T07:17:50.722Z,13.03
2022-12-29T07:20:19.472Z,13.28
2022-12-29T07:22:51.074Z,13.13
2022-12-29T07:25:17.689Z,13.17
2022-12-29T07:27:44.314Z,13.20
2022-12-29T07:30:11.225Z,13.32
2022-12-29T07:32:37.826Z,13.16
2022-12-29T07:35:05.007Z,13.46
2022-12-29T07:37:31.608Z,13.38
2022-12-29T07:39:58.154Z,13.27
2022-12-29T07:42:24.785Z,13.26
2022-12-29T07:44:52.600Z,13.28
2022-12-29T07:47:26.665Z,13.48
2022-12-29T07:49:55.442Z,13.55
2022-12-29T07:52:21.938Z,13.57
2022-12-29T07:54:48.632Z,13.77
2022-12-29T07:57:15.229Z,13.67
2022-12-29T07:59:41.843Z,13.52
2022-12-29T08:02:10.967Z,13.69
2022-12-29T08:04:37.635Z,13.50
2022-12-29T08:07:04.159Z,13.55
2022-12-29T08:09:30.726Z,13.57
2022-12-29T08:11:57.302Z,13.77
2022-12-29T08:14:23.865Z,13.39
2022-12-29T08:16:50.418Z,13.46
2022-12-29T08:19:17.001Z,13.42
2022-12-29T08:21:43.594Z,13.61
2022-12-29T08:24:10.472Z,13.59
2022-12-29T08:26:37.037Z,13.57
2022-12-29T08:29:03.632Z,13.86
2022-12-29T08:31:30.260Z,13.66
2022-12-29T08:33:57.065Z,13.79
2022-12-29T08:36:23.753Z,13.39
2022-12-29T08:38:50.571Z,13.67
2022-12-29T08:41:17.174Z,13.69
2022-12-29T08:43:46.508Z,13.58
2022-12-29T08:46:15.481Z,13.55
2022-12-29T08:48:45.207Z,13.40
2022-12-29T08:51:11.806Z,13.54
2022-12-29T08:53:38.389Z,13.62
2022-12-29T08:56:05.840Z,13.43
2022-12-29T08:58:42.781Z,13.30
2022-12-29T09:01:10.661Z,13.23
2022-12-29T09:04:12.638Z,13.22
2022-12-29T09:06:25.492Z,13.18
2022-12-29T09:08:54.504Z,13.16
2022-12-29T09:11:22.935Z,13.31
2022-12-29T09:13:50.090Z,13.27
2022-12-29T09:16:17.653Z,13.62
2022-12-29T09:18:44.962Z,13.75
2022-12-29T09:21:12.376Z,13.46
2022-12-29T09:23:40.201Z,13.44
2022-12-29T09:26:07.614Z,13.75
2022-12-29T09:28:34.285Z,13.30
2022-12-29T09:31:01.229Z,13.48
2022-12-29T09:33:28.077Z,13.59
2022-12-29T09:35:55.722Z,13.45
2022-12-29T09:38:22.473Z,13.41
2022-12-29T09:40:51.945Z,13.43
2022-12-29T09:43:21.599Z,13.30
2022-12-29T09:45:53.040Z,13.25
2022-12-29T09:48:24.452Z,13.55
2022-12-29T09:50:53.884Z,13.49
2022-12-29T09:53:28.275Z,13.49
2022-12-29T09:55:56.490Z,13.13
2022-12-29T09:58:58.761Z,13.08
2022-12-29T10:01:27.779Z,12.57
2022-12-29T10:03:56.600Z,12.44
2022-12-29T10:06:50.183Z,12.38
2022-12-29T10:09:35.931Z,12.10
2022-12-29T10:12:02.525Z,12.29
2022-12-29T10:14:44.532Z,12.41
2022-12-29T10:17:17.254Z,12.47
2022-12-29T10:19:43.840Z,12.62
2022-12-29T10:22:10.332Z,12.79
2022-12-29T10:24:39.639Z,12.79
2022-12-29T10:27:11.360Z,13.01
2022-12-29T10:29:41.364Z,12.74
2022-12-29T10:32:17.152Z,12.80
2022-12-29T10:34:46.360Z,13.08
2022-12-29T10:37:19.573Z,13.42
2022-12-29T10:39:52.215Z,13.33
2022-12-29T10:42:41.665Z,13.30
2022-12-29T10:45:12.985Z,13.76
2022-12-29T10:47:44.304Z,14.06
2022-12-29T10:50:12.976Z,14.25
2022-12-29T10:52:40.145Z,14.90
2022-12-29T10:55:29.048Z,15.76
2022-12-29T10:57:56.781Z,16.24
2022-12-29T11:00:23.497Z,16.57
2022-12-29T11:02:59.398Z,16.78
2022-12-29T11:05:28.787Z,16.41
2022-12-29T11:07:59.126Z,15.35
2022-12-29T11:10:25.699Z,14.73
2022-12-29T11:12:59.848Z,14.46
2022-12-29T11:15:26.606Z,13.91
2022-12-29T11:17:53.111Z,14.11
2022-12-29T11:20:30.455Z,14.60
2022-12-29T11:22:58.895Z,16.40
2022-12-29T11:25:25.426Z,18.22
2022-12-29T11:28:02.949Z,18.10
2022-12-29T11:30:31.032Z,17.81
2022-12-29T11:32:58.023Z,18.31
2022-12-29T11:35:50.794Z,18.57
2022-12-29T11:38:21.056Z,18.62
2022-12-29T11:40:48.852Z,17.33
2022-12-29T11:43:38.649Z,15.76
2022-12-29T11:46:06.322Z,15.33
2022-12-29T11:48:34.489Z,15.32
2022-12-29T11:51:01.353Z,14.35
2022-12-29T11:53:29.329Z,14.27
2022-12-29T11:55:55.955Z,14.08
2022-12-29T11:58:29.441Z,13.90
2022-12-29T12:00:58.161Z,13.94
2022-12-29T12:03:28.260Z,14.23
2022-12-29T12:06:15.519Z,14.06
2022-12-29T12:08:49.786Z,13.88
2022-12-29T12:11:19.630Z,13.80
2022-12-29T12:14:09.596Z,13.86
2022-12-29T12:17:15.160Z,13.69
2022-12-29T12:19:45.566Z,13.67
2022-12-29T12:22:18.898Z,12.94
2022-12-29T12:24:51.334Z,12.92
2022-12-29T12:27:41.119Z,12.72
2022-12-29T12:30:10.981Z,12.71
2022-12-29T12:32:44.179Z,12.95
2022-12-29T12:35:21.343Z,13.54
2022-12-29T12:38:07.754Z,13.35
2022-12-29T12:40:53.245Z,12.93
2022-12-29T12:43:34.765Z,13.10
2022-12-29T12:46:04.098Z,13.37
2022-12-29T12:48:43.144Z,13.26
2022-12-29T12:51:15.690Z,13.35
2022-12-29T12:53:42.299Z,13.42
2022-12-29T12:56:22.479Z,13.56
2022-12-29T12:58:52.189Z,14.16
2022-12-29T13:01:21.910Z,14.59
2022-12-29T13:03:51.763Z,14.34
2022-12-29T13:06:35.335Z,14.41
2022-12-29T13:09:11.101Z,14.42
2022-12-29T13:11:49.648Z,13.94
2022-12-29T13:14:25.406Z,13.56
2022-12-29T13:17:00.739Z,13.13
2022-12-29T13:19:32.463Z,13.14
2022-12-29T13:22:07.249Z,13.09
2022-12-29T13:24:40.188Z,13.03
2022-12-29T13:27:06.830Z,12.88
2022-12-29T13:29:45.302Z,13.20
2022-12-29T13:32:25.695Z,13.09
2022-12-29T13:35:13.325Z,13.33
2022-12-29T13:37:48.000Z,12.88
2022-12-29T13:40:17.843Z,12.89
2022-12-29T13:42:44.482Z,12.78
2022-12-29T13:45:30.818Z,12.85
2022-12-29T13:48:06.480Z,12.92
2022-12-29T13:50:36.219Z,13.06
2022-12-29T13:53:14.667Z,12.99
2022-12-29T13:55:48.221Z,12.91
2022-12-29T13:58:34.493Z,12.76
2022-12-29T14:01:10.535Z,13.08
2022-12-29T14:03:43.299Z,12.92
2022-12-29T14:06:16.341Z,13.02
2022-12-29T14:08:44.074Z,12.84
2022-12-29T14:11:12.777Z,13.03
2022-12-29T14:13:41.115Z,13.06
2022-12-29T14:16:08.906Z,13.17
2022-12-29T14:18:42.140Z,13.13
2022-12-29T14:21:08.687Z,13.12
2022-12-29T14:23:35.186Z,13.06
2022-12-29T14:26:07.667Z,12.87
2022-12-29T14:28:39.577Z,12.75
2022-12-29T14:31:15.039Z,12.72
2022-12-29T14:33:42.527Z,12.86
2022-12-29T14:36:21.526Z,12.78
2022-12-29T14:38:49.769Z,12.72
2022-12-29T14:41:20.939Z,12.78
2022-12-29T14:43:58.528Z,12.75
2022-12-29T14:46:25.483Z,12.49
2022-12-29T14:48:58.355Z,12.92
2022-12-29T14:51:36.230Z,12.88
2022-12-29T14:54:22.892Z,12.52
2022-12-29T14:56:49.695Z,12.68
2022-12-29T14:59:16.585Z,12.53
2022-12-29T15:01:50.124Z,12.66
2022-12-29T15:04:19.877Z,13.04
2022-12-29T15:06:47.217Z,12.90
2022-12-29T15:09:32.219Z,12.89
2022-12-29T15:12:03.314Z,12.91
2022-12-29T15:14:37.596Z,12.72
2022-12-29T15:17:22.937Z,12.62
2022-12-29T15:19:49.534Z,12.88
2022-12-29T15:22:16.177Z,12.65
2022-12-29T15:24:44.009Z,12.69
2022-12-29T15:27:19.711Z,12.90
2022-12-29T15:29:48.401Z,12.56
2022-12-29T15:32:19.719Z,12.88
2022-12-29T15:34:47.487Z,12.54
2022-12-29T15:37:18.701Z,12.64
2022-12-29T15:39:45.305Z,12.75
2022-12-29T15:42:30.429Z,12.48
2022-12-29T15:45:09.308Z,12.51
2022-12-29T15:47:36.725Z,12.56
2022-12-29T15:50:03.256Z,12.43
2022-12-29T15:52:30.525Z,12.56
2022-12-29T15:54:59.350Z,12.58
2022-12-29T15:57:30.716Z,12.42
2022-12-29T15:59:58.099Z,12.63
2022-12-29T16:02:25.572Z,12.19
2022-12-29T16:05:16.758Z,12.19
2022-12-29T16:07:42.222Z,12.09
2022-12-29T16:10:31.424Z,12.07
2022-12-29T16:13:06.913Z,12.28
2022-12-29T16:15:33.797Z,12.26
2022-12-29T16:18:00.636Z,12.56
2022-12-29T16:20:35.534Z,12.47
2022-12-29T16:23:02.249Z,12.58
2022-12-29T16:25:32.234Z,12.40
2022-12-29T16:28:02.666Z,12.46
2022-12-29T16:30:33.856Z,12.20
2022-12-29T16:33:02.764Z,12.21
2022-12-29T16:35:35.157Z,12.24
2022-12-29T16:38:22.531Z,12.56
2022-12-29T16:40:59.485Z,12.34
2022-12-29T16:43:27.665Z,12.68
2022-12-29T16:45:54.404Z,12.71
2022-12-29T16:48:22.730Z,12.42
2022-12-29T16:50:50.404Z,12.28
2022-12-29T16:53:23.006Z,11.99
2022-12-29T16:55:50.277Z,12.05
2022-12-29T16:58:19.179Z,12.35
2022-12-29T17:00:46.524Z,12.32
2022-12-29T17:03:13.429Z,12.33
2022-12-29T17:05:40.540Z,12.09
2022-12-29T17:08:26.338Z,11.97
2022-12-29T17:11:13.230Z,11.70
2022-12-29T17:13:40.104Z,11.58
2022-12-29T17:16:08.428Z,11.66
2022-12-29T17:18:35.500Z,11.58
2022-12-29T17:21:02.079Z,11.65
2022-12-29T17:23:30.726Z,11.75
2022-12-29T17:25:57.424Z,11.57
2022-12-29T17:28:28.652Z,11.72
2022-12-29T17:30:59.335Z,11.84
2022-12-29T17:33:26.118Z,11.93
2022-12-29T17:35:55.620Z,11.68
2022-12-29T17:38:22.329Z,11.42
2022-12-29T17:40:48.948Z,11.80
2022-12-29T17:43:16.081Z,11.89
2022-12-29T17:45:43.681Z,11.65
2022-12-29T17:48:17.616Z,11.66
2022-12-29T17:50:44.702Z,11.68
2022-12-29T17:53:13.878Z,11.66
2022-12-29T17:55:40.988Z,11.77
2022-12-29T17:58:21.424Z,11.56
2022-12-29T18:00:49.021Z,11.60
2022-12-29T18:03:17.011Z,11.64
2022-12-29T18:05:43.991Z,11.70
2022-12-29T18:08:12.657Z,11.79
2022-12-29T18:10:39.655Z,11.55
2022-12-29T18:13:06.244Z,11.75
2022-12-29T18:15:37.266Z,11.80
2022-12-29T18:18:14.165Z,11.58
2022-12-29T18:20:43.024Z,11.34
2022-12-29T18:23:18.770Z,11.30
2022-12-29T18:25:48.659Z,11.46
2022-12-29T18:28:15.194Z,11.34
2022-12-29T18:30:41.799Z,11.42
2022-12-29T18:33:21.027Z,11.46
2022-12-29T18:35:48.663Z,11.34
2022-12-29T18:38:15.209Z,11.58
2022-12-29T18:40:41.801Z,11.45
2022-12-29T18:43:10.108Z,11.20
2022-12-29T18:45:36.766Z,11.13
2022-12-29T18:48:03.346Z,11.19
2022-12-29T18:50:29.933Z,11.23
2022-12-29T18:53:03.392Z,11.13
2022-12-29T18:55:30.637Z,11.33
2022-12-29T18:57:57.217Z,11.22
2022-12-29T19:00:23.997Z,11.09
2022-12-29T19:02:51.799Z,11.37
2022-12-29T19:05:23.541Z,11.51
2022-12-29T19:07:50.521Z,11.29
2022-12-29T19:10:17.696Z,11.47
2022-12-29T19:12:44.372Z,11.35
2022-12-29T19:15:18.612Z,11.44
2022-12-29T19:17:45.584Z,11.44
2022-12-29T19:20:41.528Z,11.52
2022-12-29T19:23:09.493Z,11.40
2022-12-29T19:25:36.049Z,11.22
2022-12-29T19:28:02.650Z,11.32
2022-12-29T19:30:29.979Z,11.45
2022-12-29T19:32:57.718Z,11.39
2022-12-29T19:35:26.510Z,11.02
2022-12-29T19:37:53.617Z,11.52
2022-12-29T19:40:22.494Z,11.43
2022-12-29T19:42:49.468Z,11.52
2022-12-29T19:45:16.317Z,11.57
2022-12-29T19:47:43.062Z,11.53
2022-12-29T19:50:10.459Z,11.67
2022-12-29T19:52:37.037Z,11.57
2022-12-29T19:55:04.949Z,11.39
2022-12-29T19:57:31.730Z,11.65
2022-12-29T19:59:58.647Z,11.50
2022-12-29T20:02:25.257Z,11.73
2022-12-29T20:04:51.993Z,11.63
2022-12-29T20:07:19.095Z,11.50
2022-12-29T20:09:45.942Z,11.51
2022-12-29T20:12:15.266Z,11.59
2022-12-29T20:14:42.798Z,11.62
2022-12-29T20:17:11.880Z,11.63
2022-12-29T20:19:39.347Z,11.35
2022-12-29T20:22:06.902Z,11.39
2022-12-29T20:24:34.497Z,11.50
2022-12-29T20:27:02.971Z,11.65
2022-12-29T20:29:39.242Z,11.52
2022-12-29T20:32:08.647Z,11.66
2022-12-29T20:34:36.852Z,11.87
2022-12-29T20:37:03.869Z,11.73
2022-12-29T20:39:31.800Z,11.73
2022-12-29T20:41:58.786Z,11.53
2022-12-29T20:44:26.042Z,11.65
2022-12-29T20:46:52.656Z,11.23
2022-12-29T20:49:19.266Z,11.34
2022-12-29T20:54:38.767Z,11.43
2022-12-29T20:57:05.991Z,11.36
2022-12-29T20:59:35.055Z,11.01
2022-12-29T21:02:01.837Z,11.21
2022-12-29T21:04:43.834Z,10.99
2022-12-29T21:07:19.745Z,11.02
2022-12-29T21:09:46.838Z,10.94
2022-12-29T21:12:13.409Z,10.97
2022-12-29T21:14:45.538Z,11.27
2022-12-29T21:17:12.824Z,10.81
2022-12-29T21:19:39.383Z,10.90
2022-12-29T21:22:05.987Z,10.86
2022-12-29T21:24:33.275Z,10.73
2022-12-29T21:26:59.804Z,10.67
2022-12-29T21:29:26.771Z,10.63
2022-12-29T21:32:05.686Z,10.69
2022-12-29T21:34:35.765Z,10.61
2022-12-29T21:37:02.518Z,10.56
2022-12-29T21:39:29.061Z,10.55
2022-12-29T21:42:00.175Z,10.40
2022-12-29T21:44:45.654Z,10.50
2022-12-29T21:47:12.233Z,10.50
2022-12-29T21:49:38.847Z,10.40
2022-12-29T21:52:05.506Z,10.28
2022-12-29T21:54:53.760Z,10.24
2022-12-29T21:57:39.121Z,10.38
2022-12-29T22:00:25.870Z,10.44
2022-12-29T22:03:18.202Z,10.24
2022-12-29T22:06:07.634Z,10.12
2022-12-29T22:08:53.026Z,10.14
2022-12-29T22:11:45.579Z,10.20
2022-12-29T22:14:12.271Z,10.29
2022-12-29T22:16:40.992Z,10.31
2022-12-29T22:19:08.830Z,10.03
2022-12-29T22:21:35.565Z,10.04
2022-12-29T22:24:02.137Z,10.43
2022-12-29T22:26:28.663Z,10.30
2022-12-29T22:28:55.384Z,10.27
2022-12-29T22:31:29.755Z,10.08
2022-12-29T22:33:57.390Z,10.41
2022-12-29T22:36:24.206Z,10.14
2022-12-29T22:38:50.904Z,10.26
2022-12-29T22:41:17.568Z,9.99
2022-12-29T22:43:44.395Z,10.02
2022-12-29T22:46:11.099Z,10.03
2022-12-29T22:48:37.831Z,10.00
2022-12-29T22:51:04.882Z,9.92
2022-12-29T22:53:31.614Z,9.85
2022-12-29T22:56:05.822Z,9.97
2022-12-29T22:58:34.578Z,9.58
2022-12-29T23:01:05.618Z,9.70
2022-12-29T23:03:38.809Z,9.74
2022-12-29T23:06:06.839Z,9.67
2022-12-29T23:08:34.674Z,9.81
2022-12-29T23:11:01.439Z,9.64
2022-12-29T23:13:28.128Z,9.40
2022-12-29T23:15:54.944Z,9.51
2022-12-29T23:18:21.713Z,9.73
2022-12-29T23:20:49.084Z,9.79
2022-12-29T23:23:36.016Z,9.71
2022-12-29T23:26:02.603Z,9.82
2022-12-29T23:28:29.148Z,9.73
2022-12-29T23:30:55.840Z,9.94
2022-12-29T23:33:22.408Z,9.75
2022-12-29T23:35:52.199Z,9.78
2022-12-29T23:38:19.756Z,9.72
2022-12-29T23:40:46.339Z,9.79
2022-12-29T23:43:13.633Z,9.94
2022-12-29T23:45:42.644Z,10.01
2022-12-29T23:48:13.323Z,9.82
2022-12-29T23:50:43.745Z,9.44
2022-12-29T23:53:10.826Z,9.58
2022-12-29T23:55:38.789Z,9.58
2022-12-29T23:58:05.438Z,9.71
